Time;durP1;ratioP1;P1;durP2;ratioP2;P2;SDS_P1;SDS_P2;PMS_P1;PMS_P2;Temp;Humidity;BMP_temperature;BMP_pressure;BME280_temperature;BME280_humidity;BME280_pressure;Samples;Min_cycle;Max_cycle;Signal;HPM_P1;HPM_P2
2022/07/12 00:02:08;;;;;;;3.35;0.93;;;;;;;15.61;71.89;98847.59;1748748;82;21624;-43
2022/07/12 00:04:35;;;;;;;2.30;1.00;;;;;;;15.58;71.96;98847.05;1749111;82;21085;-44
2022/07/12 00:07:04;;;;;;;1.30;0.93;;;;;;;15.61;72.33;98848.97;1748844;82;21522;-44
2022/07/12 00:09:31;;;;;;;2.33;1.00;;;;;;;15.65;72.07;98856.53;1749188;82;20929;-43
2022/07/12 00:11:58;;;;;;;3.17;1.22;;;;;;;15.65;72.00;98852.44;1748899;82;21013;-43
2022/07/12 00:14:25;;;;;;;3.12;1.27;;;;;;;15.60;72.11;98848.77;1749064;82;21468;-43
2022/07/12 00:16:52;;;;;;;1.07;0.98;;;;;;;15.55;72.03;98849.21;1748903;82;21049;-43
2022/07/12 00:19:20;;;;;;;3.60;1.05;;;;;;;15.52;72.25;98852.77;1749087;82;21289;-43
2022/07/12 00:21:47;;;;;;;3.27;1.40;;;;;;;15.53;72.33;98850.22;1748919;82;20961;-43
2022/07/12 00:24:14;;;;;;;2.67;1.00;;;;;;;15.53;72.40;98846.91;1748935;82;21077;-43
2022/07/12 00:26:41;;;;;;;5.22;1.10;;;;;;;15.49;72.59;98848.09;1749126;82;20965;-43
2022/07/12 00:29:09;;;;;;;6.37;1.10;;;;;;;15.47;72.52;98847.70;1748818;82;20985;-43
2022/07/12 00:31:36;;;;;;;2.60;1.10;;;;;;;15.42;72.46;98846.77;1749042;82;21204;-43
2022/07/12 00:34:03;;;;;;;3.27;0.95;;;;;;;15.42;72.75;98850.28;1748777;82;21021;-43
2022/07/12 00:36:31;;;;;;;1.62;0.90;;;;;;;15.41;72.43;98854.19;1748872;82;20998;-43
2022/07/12 00:38:58;;;;;;;2.65;1.22;;;;;;;15.37;72.89;98856.18;1749007;82;20902;-43
2022/07/12 00:41:25;;;;;;;3.42;1.30;;;;;;;15.35;72.57;98848.19;1749144;82;21034;-43
2022/07/12 00:43:52;;;;;;;2.85;1.10;;;;;;;15.32;73.05;98847.05;1749001;82;21234;-43
2022/07/12 00:46:23;;;;;;;1.65;1.00;;;;;;;15.34;72.79;98854.85;1749161;82;21001;-43
2022/07/12 00:48:50;;;;;;;4.45;1.17;;;;;;;15.33;72.19;98856.80;1749317;82;21029;-43
2022/07/12 00:51:20;;;;;;;2.12;1.10;;;;;;;15.30;72.40;98862.30;1749444;82;21008;-43
2022/07/12 00:53:48;;;;;;;1.37;0.93;;;;;;;15.25;72.43;98868.19;1749351;82;21096;-43
2022/07/12 00:56:15;;;;;;;1.67;0.90;;;;;;;15.23;72.54;98850.84;1743097;82;21244;-43
2022/07/12 00:58:43;;;;;;;2.02;1.12;;;;;;;15.24;72.20;98846.94;1741977;81;20938;-43
2022/07/12 01:01:10;;;;;;;3.92;1.32;;;;;;;15.26;72.23;98846.52;1743269;82;20997;-43
2022/07/12 01:03:38;;;;;;;2.15;1.17;;;;;;;15.20;72.14;98846.94;1743185;82;20965;-43
2022/07/12 01:06:07;;;;;;;2.27;1.10;;;;;;;15.16;72.08;98847.56;1743364;82;21586;-43
2022/07/12 01:08:35;;;;;;;;;;;;;;;15.13;71.97;98851.11;1717093;82;23197;-43
2022/07/12 01:11:02;;;;;;;4.83;1.30;;;;;;;15.15;71.83;98851.47;1743271;82;20099;-43
2022/07/12 01:13:29;;;;;;;3.20;1.30;;;;;;;15.08;72.19;98844.70;1690577;82;21005;-43
2022/07/12 01:15:56;;;;;;;3.80;1.35;;;;;;;15.08;72.07;98841.20;1743028;82;21001;-43
2022/07/12 01:18:23;;;;;;;5.03;1.20;;;;;;;15.06;72.06;98834.77;1743427;82;21519;-43
2022/07/12 01:20:50;;;;;;;2.65;0.90;;;;;;;15.08;72.01;98839.83;1743093;82;23130;-43
2022/07/12 01:23:17;;;;;;;1.45;1.00;;;;;;;15.06;71.93;98833.40;1743176;82;21024;-43
2022/07/12 01:25:44;;;;;;;2.08;1.10;;;;;;;15.09;71.92;98832.62;1743299;82;20934;-43
2022/07/12 01:28:11;;;;;;;2.37;1.30;;;;;;;15.09;71.91;98838.66;1743200;82;21065;-43
2022/07/12 01:30:40;;;;;;;3.37;1.02;;;;;;;15.04;72.03;98834.41;1743306;82;21050;-43
2022/07/12 01:33:07;;;;;;;3.20;1.20;;;;;;;15.03;71.95;98832.85;1714510;82;21104;-43
2022/07/12 01:35:36;;;;;;;2.45;1.12;;;;;;;15.06;72.07;98829.89;1743194;82;20962;-43
2022/07/12 01:38:03;;;;;;;2.20;0.93;;;;;;;15.08;71.71;98821.50;1743275;82;21561;-43
2022/07/12 01:40:30;;;;;;;2.35;1.20;;;;;;;15.06;71.58;98824.43;1743284;82;21081;-43
2022/07/12 01:42:57;;;;;;;1.98;1.02;;;;;;;15.02;71.64;98831.88;1743280;82;21519;-43
2022/07/12 01:45:24;;;;;;;2.75;1.00;;;;;;;14.99;71.45;98832.69;1743217;82;21127;-43
2022/07/12 01:47:51;;;;;;;2.22;0.88;;;;;;;14.98;71.56;98827.81;1743224;82;21587;-43
2022/07/12 01:50:18;;;;;;;2.65;1.15;;;;;;;15.00;71.66;98833.66;1743184;82;20977;-43
2022/07/12 01:52:46;;;;;;;2.08;0.85;;;;;;;14.98;71.72;98843.41;1743288;82;21558;-43
2022/07/12 01:55:13;;;;;;;1.85;0.90;;;;;;;14.92;71.54;98842.28;1743236;82;21009;-43
2022/07/12 01:57:41;;;;;;;2.85;1.00;;;;;;;14.88;71.82;98844.27;1743108;82;21135;-43
2022/07/12 02:00:11;;;;;;;1.02;0.75;;;;;;;14.88;71.90;98848.36;1748906;82;21510;-43
2022/07/12 02:02:38;;;;;;;4.87;1.30;;;;;;;14.90;71.82;98852.84;1749264;82;21012;-43
2022/07/12 02:05:06;;;;;;;1.98;0.90;;;;;;;14.85;71.71;98852.67;1748999;82;20997;-43
2022/07/12 02:07:33;;;;;;;2.30;1.00;;;;;;;14.81;71.72;98847.83;1749455;82;21040;-43
2022/07/12 02:10:00;;;;;;;2.02;0.90;;;;;;;14.78;71.88;98843.94;1748903;82;21135;-43
2022/07/12 02:12:27;;;;;;;2.25;1.10;;;;;;;14.80;71.68;98849.00;1749002;82;21503;-43
2022/07/12 02:14:54;;;;;;;1.60;0.90;;;;;;;14.81;71.94;98849.20;1749062;82;21487;-43
2022/07/12 02:17:21;;;;;;;4.25;0.93;;;;;;;14.79;71.94;98852.91;1748933;82;21530;-43
2022/07/12 02:19:48;;;;;;;3.05;1.07;;;;;;;14.75;72.02;98848.06;1749091;82;21037;-43
2022/07/12 02:22:16;;;;;;;0.82;0.80;;;;;;;14.72;72.32;98850.20;1749048;82;21126;-43
2022/07/12 02:24:43;;;;;;;3.65;1.10;;;;;;;14.74;72.30;98851.95;1749028;82;21612;-43
2022/07/12 02:27:11;;;;;;;4.92;1.07;;;;;;;14.75;72.43;98854.30;1748945;82;20965;-43
2022/07/12 02:29:38;;;;;;;3.87;1.15;;;;;;;14.73;72.51;98854.49;1749072;82;21073;-43
2022/07/12 02:32:06;;;;;;;3.40;1.00;;;;;;;14.70;72.62;98851.98;1748967;82;21080;-43
2022/07/12 02:34:34;;;;;;;3.33;1.20;;;;;;;14.68;72.39;98848.09;1748887;82;21089;-43
2022/07/12 02:37:01;;;;;;;4.47;1.67;;;;;;;14.70;72.52;98853.94;1748972;82;20933;-43
2022/07/12 02:39:29;;;;;;;1.07;0.98;;;;;;;14.70;72.43;98852.57;1749348;82;21459;-43
2022/07/12 02:41:56;;;;;;;1.75;0.88;;;;;;;14.65;72.57;98855.72;1749052;82;20945;-43
2022/07/12 02:44:23;;;;;;;3.33;1.00;;;;;;;14.64;72.66;98862.34;1749044;82;21060;-43
2022/07/12 02:46:50;;;;;;;5.50;1.20;;;;;;;14.59;72.77;98862.76;1748990;82;21177;-43
2022/07/12 02:49:17;;;;;;;1.52;1.12;;;;;;;14.58;72.78;98861.20;1748919;82;20961;-43
2022/07/12 02:51:44;;;;;;;1.95;1.10;;;;;;;14.57;72.76;98864.52;1749146;82;21080;-43
2022/07/12 02:54:11;;;;;;;2.52;1.00;;;;;;;14.56;72.70;98867.66;1749009;82;21494;-43
2022/07/12 02:56:38;;;;;;;1.52;1.07;;;;;;;14.51;72.72;98872.94;1748981;82;21036;-43
2022/07/12 02:59:06;;;;;;;3.67;1.30;;;;;;;14.47;73.13;98879.00;1748933;81;21124;-43
2022/07/12 03:01:34;;;;;;;4.20;1.37;;;;;;;14.45;73.26;98872.37;1749011;82;20970;-43
2022/07/12 03:04:01;;;;;;;3.58;1.22;;;;;;;14.45;73.26;98873.16;1748905;82;20961;-43
2022/07/12 03:06:29;;;;;;;1.95;1.10;;;;;;;14.47;73.17;98871.41;1749069;82;21029;-43
2022/07/12 03:08:56;;;;;;;3.52;1.27;;;;;;;14.47;73.12;98865.95;1744148;82;21040;-43
2022/07/12 03:11:24;;;;;;;3.22;1.20;;;;;;;14.46;73.19;98869.84;1749078;82;21136;-43
2022/07/12 03:13:51;;;;;;;1.60;1.10;;;;;;;14.43;73.05;98865.16;1749027;82;20926;-43
2022/07/12 03:16:18;;;;;;;1.92;0.90;;;;;;;14.38;73.07;98864.24;1749019;82;21582;-43
2022/07/12 03:18:45;;;;;;;5.60;1.42;;;;;;;14.37;72.90;98869.50;1754190;80;21542;-43
2022/07/12 03:21:12;;;;;;;1.80;1.00;;;;;;;14.37;73.08;98866.19;1779934;80;21495;-43
2022/07/12 03:23:40;;;;;;;1.82;1.20;;;;;;;14.39;72.92;98871.23;1780012;80;21383;-43
2022/07/12 03:26:08;;;;;;;3.70;1.45;;;;;;;14.37;72.91;98869.50;1779777;80;20981;-43
2022/07/12 03:28:35;;;;;;;2.40;1.20;;;;;;;14.33;72.85;98869.46;1779923;80;20957;-43
2022/07/12 03:31:02;;;;;;;2.25;1.30;;;;;;;14.29;72.95;98872.21;1779820;80;21041;-42
2022/07/12 03:33:29;;;;;;;4.00;1.25;;;;;;;14.31;72.89;98875.33;1779688;80;21498;-42
2022/07/12 03:35:56;;;;;;;3.00;1.17;;;;;;;14.32;73.00;98882.34;1779856;80;22136;-42
2022/07/12 03:38:24;;;;;;;2.58;1.40;;;;;;;14.32;72.96;98877.48;1779660;80;21513;-42
2022/07/12 03:40:51;;;;;;;5.90;1.30;;;;;;;14.31;72.88;98880.78;1779902;80;21020;-43
2022/07/12 03:43:19;;;;;;;6.50;1.40;;;;;;;14.30;73.12;98877.08;1774692;80;21676;-42
2022/07/12 03:45:45;;;;;;;4.45;1.27;;;;;;;14.33;73.08;98879.78;1779707;80;21009;-42
2022/07/12 03:48:13;;;;;;;3.85;1.17;;;;;;;14.37;73.02;98887.23;1779734;80;21136;-42
2022/07/12 03:50:42;;;;;;;3.60;1.20;;;;;;;14.42;73.19;98886.23;1779946;80;21001;-42
2022/07/12 03:53:09;;;;;;;5.00;1.35;;;;;;;14.50;73.17;98882.29;1779566;80;20953;-42
2022/07/12 03:55:38;;;;;;;1.98;1.20;;;;;;;14.58;72.09;98893.94;1779845;80;21021;-42
2022/07/12 03:58:05;;;;;;;3.92;1.30;;;;;;;14.64;71.48;98892.35;1779874;80;21523;-42
2022/07/12 04:00:32;;;;;;;3.90;1.10;;;;;;;14.66;71.51;98888.06;1774098;80;21123;-42
2022/07/12 04:03:00;;;;;;;3.52;1.50;;;;;;;14.68;71.19;98900.70;1781336;80;20956;-42
2022/07/12 04:05:27;;;;;;;2.95;1.40;;;;;;;14.66;70.86;98896.25;1777450;80;20965;-42
2022/07/12 04:07:56;;;;;;;2.47;1.37;;;;;;;14.65;70.54;98889.82;1782319;80;21004;-42
2022/07/12 04:10:24;;;;;;;5.17;1.20;;;;;;;14.66;70.70;98892.75;1782283;80;20969;-42
2022/07/12 04:12:53;;;;;;;1.50;1.15;;;;;;;14.70;70.69;98886.67;1782484;80;20898;-42
2022/07/12 04:15:20;;;;;;;1.72;1.05;;;;;;;14.75;70.04;98891.72;1782194;80;20956;-42
2022/07/12 04:17:47;;;;;;;2.90;1.20;;;;;;;14.81;69.66;98885.26;1782354;80;21017;-42
2022/07/12 04:20:14;;;;;;;1.80;1.30;;;;;;;14.84;70.12;98885.23;1782532;80;21031;-42
2022/07/12 04:22:41;;;;;;;3.50;1.30;;;;;;;14.85;69.83;98895.56;1782481;80;21080;-42
2022/07/12 04:25:09;;;;;;;2.00;1.20;;;;;;;14.86;69.59;98900.62;1782551;80;22062;-42
2022/07/12 04:27:36;;;;;;;4.72;1.32;;;;;;;14.95;69.70;98900.19;1782168;80;21544;-42
2022/07/12 04:30:06;;;;;;;3.47;1.20;;;;;;;15.04;69.21;98897.20;1782352;80;20956;-43
2022/07/12 04:32:34;;;;;;;1.47;1.10;;;;;;;15.11;69.43;98905.91;1782452;80;20993;-42
2022/07/12 04:35:01;;;;;;;1.85;1.15;;;;;;;15.13;69.21;98896.16;1782415;80;21025;-42
2022/07/12 04:37:28;;;;;;;2.58;1.20;;;;;;;15.14;68.94;98900.45;1782518;80;21319;-42
2022/07/12 04:39:57;;;;;;;2.55;1.20;;;;;;;15.21;69.08;98897.66;1782349;80;21516;-42
2022/07/12 04:42:24;;;;;;;2.02;1.10;;;;;;;15.28;69.01;98900.15;1782639;80;21550;-42
2022/07/12 04:44:51;;;;;;;2.08;1.20;;;;;;;15.33;69.12;98909.28;1782489;80;21033;-42
2022/07/12 04:47:18;;;;;;;3.40;1.10;;;;;;;15.38;69.13;98904.76;1782400;80;21001;-42
2022/07/12 04:49:45;;;;;;;2.08;1.25;;;;;;;15.43;69.30;98898.28;1782450;80;21141;-42
2022/07/12 04:52:12;;;;;;;1.10;0.90;;;;;;;15.51;69.04;98907.98;1782275;80;20989;-42
2022/07/12 04:54:39;;;;;;;5.72;1.30;;;;;;;15.58;67.84;98911.27;1782345;80;21025;-43
2022/07/12 04:57:06;;;;;;;4.17;1.20;;;;;;;15.67;68.22;98906.69;1782321;80;21471;-42
2022/07/12 04:59:33;;;;;;;2.00;1.10;;;;;;;15.71;68.06;98909.58;1782551;80;21029;-43
2022/07/12 05:02:02;;;;;;;6.15;1.30;;;;;;;15.73;67.26;98926.36;1779253;80;21141;-43
2022/07/12 05:04:34;;;;;;;2.75;1.10;;;;;;;15.71;67.50;98926.56;1774266;80;21017;-42
2022/07/12 05:07:01;;;;;;;3.12;1.20;;;;;;;15.71;67.45;98925.97;1774225;80;21012;-43
2022/07/12 05:09:28;;;;;;;3.62;1.20;;;;;;;15.72;67.05;98924.02;1774068;80;21624;-43
2022/07/12 05:11:55;;;;;;;4.17;1.35;;;;;;;15.68;66.62;98928.75;1774172;80;21037;-43
2022/07/12 05:14:24;;;;;;;2.55;1.20;;;;;;;15.65;66.79;98928.95;1774218;80;21126;-43
2022/07/12 05:16:53;;;;;;;3.02;1.25;;;;;;;15.63;67.17;98933.47;1773967;80;20894;-43
2022/07/12 05:19:19;;;;;;;3.30;1.20;;;;;;;15.69;67.02;98943.94;1774127;80;21031;-43
2022/07/12 05:21:47;;;;;;;1.95;1.30;;;;;;;15.69;66.61;98941.20;1774319;80;21581;-43
2022/07/12 05:24:15;;;;;;;2.45;1.10;;;;;;;15.70;67.08;98940.03;1774290;80;21109;-43
2022/07/12 05:26:43;;;;;;;2.92;1.15;;;;;;;15.68;66.50;98937.73;1774174;80;21201;-43
2022/07/12 05:29:10;;;;;;;2.47;1.05;;;;;;;15.71;67.09;98938.86;1774102;80;20922;-43
2022/07/12 05:31:38;;;;;;;3.25;1.20;;;;;;;15.74;66.22;98940.19;1774140;80;20977;-43
2022/07/12 05:34:05;;;;;;;3.55;1.25;;;;;;;15.75;65.92;98939.02;1773915;80;21595;-43
2022/07/12 05:36:32;;;;;;;2.15;1.30;;;;;;;15.76;66.32;98937.84;1774273;80;21076;-43
2022/07/12 05:38:59;;;;;;;1.22;0.95;;;;;;;15.81;66.65;98942.88;1774195;80;21132;-43
2022/07/12 05:41:26;;;;;;;4.42;1.50;;;;;;;15.88;66.66;98940.06;1774182;80;21016;-43
2022/07/12 05:43:52;;;;;;;2.77;1.30;;;;;;;15.92;65.76;98940.05;1774032;80;21444;-42
2022/07/12 05:46:19;;;;;;;1.60;1.20;;;;;;;15.94;65.90;98935.72;1774146;80;21029;-43
2022/07/12 05:48:48;;;;;;;2.35;1.00;;;;;;;16.01;65.89;98940.34;1774189;80;20994;-43
2022/07/12 05:54:00;;;;;;;2.40;1.10;;;;;;;16.09;65.17;98948.06;1773895;80;21516;-43
2022/07/12 05:56:28;;;;;;;2.05;1.40;;;;;;;16.08;65.35;98949.83;1774145;80;20965;-43
2022/07/12 05:58:55;;;;;;;1.77;1.10;;;;;;;16.11;65.08;98950.99;1774261;80;20950;-43
2022/07/12 06:01:22;;;;;;;2.87;1.05;;;;;;;16.15;65.57;98955.83;1774135;80;21518;-43
2022/07/12 06:03:49;;;;;;;1.22;0.88;;;;;;;16.20;65.40;98951.28;1782432;80;21098;-43
2022/07/12 06:06:16;;;;;;;2.12;1.17;;;;;;;16.22;63.85;98957.11;1782449;80;20922;-43
2022/07/12 06:08:43;;;;;;;1.10;1.00;;;;;;;16.25;64.26;98958.47;1782758;80;21020;-43
2022/07/12 06:11:11;;;;;;;2.05;0.95;;;;;;;16.30;65.16;98958.61;1782462;80;21605;-42
2022/07/12 06:13:39;;;;;;;4.75;1.15;;;;;;;16.37;65.05;98959.88;1782766;80;21005;-43
2022/07/12 06:16:07;;;;;;;2.15;1.00;;;;;;;16.43;65.12;98965.88;1782441;80;23181;-43
2022/07/12 06:18:35;;;;;;;2.37;1.32;;;;;;;16.50;63.73;98960.93;1782838;80;20986;-43
2022/07/12 06:21:02;;;;;;;1.62;1.07;;;;;;;16.62;64.72;98965.89;1782697;80;20972;-43
2022/07/12 06:23:29;;;;;;;3.15;1.20;;;;;;;16.72;63.71;98963.62;1782665;80;21021;-43
2022/07/12 06:25:56;;;;;;;1.25;0.80;;;;;;;16.81;63.92;98965.84;1782599;80;21064;-43
2022/07/12 06:28:23;;;;;;;2.87;1.15;;;;;;;16.88;62.92;98972.03;1782636;80;21180;-43
2022/07/12 06:30:50;;;;;;;0.90;0.90;;;;;;;16.90;62.31;98972.37;1782577;80;20977;-43
2022/07/12 06:33:17;;;;;;;1.67;1.00;;;;;;;16.93;63.03;98970.80;1782741;80;21660;-43
2022/07/12 06:35:44;;;;;;;2.40;1.10;;;;;;;16.97;62.55;98970.73;1782693;80;21629;-43
2022/07/12 06:38:11;;;;;;;4.72;1.10;;;;;;;17.06;63.22;98980.00;1782668;80;21036;-43
2022/07/12 06:40:38;;;;;;;1.45;1.00;;;;;;;17.17;62.44;98982.02;1782708;80;21310;-43
2022/07/12 06:43:11;;;;;;;1.87;1.00;;;;;;;17.20;61.68;98980.39;1782614;80;20925;-43
2022/07/12 06:45:39;;;;;;;2.52;1.17;;;;;;;17.18;62.51;98981.42;1782638;80;20933;-43
2022/07/12 06:48:06;;;;;;;13.32;2.35;;;;;;;17.19;61.75;98987.05;1782526;80;20945;-43
2022/07/12 06:50:33;;;;;;;3.42;1.12;;;;;;;17.19;62.59;98995.28;1782770;80;21084;-43
2022/07/12 06:53:00;;;;;;;1.95;1.12;;;;;;;17.23;62.26;98987.19;1782644;80;21243;-43
2022/07/12 06:55:27;;;;;;;2.15;1.02;;;;;;;17.29;61.71;98998.47;1782597;80;21008;-43
2022/07/12 06:57:55;;;;;;;2.10;1.27;;;;;;;17.37;62.03;99000.72;1782647;80;21781;-43
2022/07/12 07:00:23;;;;;;;2.70;1.30;;;;;;;17.43;62.88;99009.84;1782398;80;21615;-43
2022/07/12 07:02:50;;;;;;;1.82;1.12;;;;;;;17.49;61.55;99008.95;1780723;80;21038;-43
2022/07/12 07:05:17;;;;;;;3.45;1.27;;;;;;;17.52;62.39;99007.36;1781314;80;21251;-43
2022/07/12 07:07:45;;;;;;;1.65;1.30;;;;;;;17.54;62.34;99013.96;1782554;80;20985;-44
2022/07/12 07:10:12;;;;;;;1.10;1.00;;;;;;;17.57;62.85;99010.38;1782622;80;21076;-43
2022/07/12 07:12:40;;;;;;;6.30;1.25;;;;;;;17.63;62.63;99010.13;1782706;80;20972;-43
2022/07/12 07:15:08;;;;;;;3.05;1.30;;;;;;;17.62;61.36;99020.16;1782500;80;20985;-44
2022/07/12 07:17:35;;;;;;;4.25;1.40;;;;;;;17.53;60.39;99026.70;1782656;80;21292;-43
2022/07/12 07:20:03;;;;;;;2.35;1.20;;;;;;;17.44;60.38;99025.08;1782775;80;20989;-43
2022/07/12 07:22:31;;;;;;;1.57;1.10;;;;;;;17.42;61.21;99029.62;1782645;80;21534;-43
2022/07/12 07:24:58;;;;;;;2.12;1.20;;;;;;;17.49;61.25;99022.65;1782647;80;21052;-43
2022/07/12 07:27:25;;;;;;;1.37;1.10;;;;;;;17.58;61.80;99027.02;1782795;80;21000;-43
2022/07/12 07:32:38;;;;;;;1.95;1.10;;;;;;;17.80;61.79;99021.44;1782710;80;20961;-43
2022/07/12 07:35:06;;;;;;;2.15;1.35;;;;;;;17.90;60.92;99012.08;1782721;80;21554;-43
2022/07/12 07:37:34;;;;;;;1.42;1.20;;;;;;;17.96;60.42;99018.65;1782750;80;21012;-43
2022/07/12 07:40:02;;;;;;;4.87;1.37;;;;;;;18.02;60.48;99022.45;1782679;80;21096;-43
2022/07/12 07:42:29;;;;;;;1.60;1.20;;;;;;;18.03;59.47;99025.37;1782815;80;21832;-43
2022/07/12 07:44:56;;;;;;;4.78;1.10;;;;;;;18.03;60.34;99029.48;1782719;80;21476;-43
2022/07/12 07:47:24;;;;;;;1.62;0.98;;;;;;;18.07;59.13;99021.38;1782493;80;21052;-43
2022/07/12 07:49:51;;;;;;;2.87;1.27;;;;;;;18.06;58.99;99024.53;1782752;80;21495;-43
2022/07/12 07:52:18;;;;;;;1.55;1.10;;;;;;;18.02;59.42;99025.19;1754244;80;21036;-43
2022/07/12 07:54:45;;;;;;;2.33;0.95;;;;;;;17.99;59.35;99017.80;1782643;80;21140;-43
2022/07/12 07:57:12;;;;;;;2.08;1.17;;;;;;;18.00;59.28;99027.00;1782381;80;21510;-43
2022/07/12 07:59:39;;;;;;;2.98;0.95;;;;;;;18.03;58.47;99025.37;1782652;80;21625;-43
2022/07/12 08:02:07;;;;;;;4.72;1.07;;;;;;;18.04;58.50;99023.59;1782515;80;21503;-43
2022/07/12 08:04:34;;;;;;;1.82;1.10;;;;;;;18.09;58.25;99021.75;1747933;80;21500;-43
2022/07/12 08:07:01;;;;;;;5.30;1.17;;;;;;;18.17;58.22;99023.76;1779683;80;23185;-44
2022/07/12 08:09:29;;;;;;;10.15;1.80;;;;;;;18.26;58.68;99023.98;1779721;80;21526;-43
2022/07/12 08:13:20;;;;;;;3.02;1.20;;;;;;;18.43;58.14;99017.42;1810090;78;22729;-43
2022/07/12 08:15:47;;;;;;;2.08;1.02;;;;;;;18.45;59.10;99015.02;1787657;80;20994;-43
2022/07/12 08:18:15;;;;;;;3.30;1.20;;;;;;;18.58;57.40;99002.87;1787826;79;21247;-43
2022/07/12 08:20:42;;;;;;;2.22;1.10;;;;;;;18.67;56.83;99001.70;1787787;80;20974;-43
2022/07/12 08:23:09;;;;;;;5.62;1.20;;;;;;;18.78;56.85;99013.86;1787785;79;20966;-43
2022/07/12 08:25:37;;;;;;;4.03;1.10;;;;;;;18.85;55.47;99013.70;1787888;80;20942;-43
2022/07/12 08:28:04;;;;;;;1.00;0.78;;;;;;;18.93;54.52;99013.72;1787621;80;20971;-43
2022/07/12 08:30:32;;;;;;;1.20;0.68;;;;;;;18.97;53.32;99011.70;1787999;80;21481;-43
2022/07/12 08:32:59;;;;;;;1.47;0.70;;;;;;;19.05;53.69;99019.37;1787772;79;20998;-43
2022/07/12 08:35:26;;;;;;;2.67;0.70;;;;;;;19.18;54.37;99019.48;1787686;80;21017;-43
2022/07/12 08:37:53;;;;;;;0.80;0.80;;;;;;;19.35;53.26;99016.96;1787876;80;20967;-43
2022/07/12 08:40:20;;;;;;;2.27;1.07;;;;;;;19.53;51.82;99014.61;1787732;80;21074;-43
2022/07/12 08:42:48;;;;;;;1.35;0.90;;;;;;;19.66;52.83;99015.30;1787786;80;21296;-43
2022/07/12 08:45:15;;;;;;;3.15;0.85;;;;;;;19.75;53.04;99016.88;1787490;80;21584;-43
2022/07/12 08:47:42;;;;;;;2.45;1.07;;;;;;;19.82;52.34;99020.82;1787848;80;20993;-43
2022/07/12 08:50:17;;;;;;;1.82;1.02;;;;;;;19.84;52.25;99017.05;1787663;79;20978;-44
2022/07/12 08:52:47;;;;;;;1.52;0.80;;;;;;;19.83;52.25;99014.12;1787775;80;20987;-43
2022/07/12 08:55:33;;;;;;;0.60;0.60;;;;;;;19.86;53.16;99017.37;1787944;80;21183;-43
2022/07/12 08:58:03;;;;;;;1.35;0.70;;;;;;;19.91;51.46;99015.48;1787719;80;21076;-43
2022/07/12 09:00:30;;;;;;;0.72;0.70;;;;;;;19.95;50.69;99021.67;1788171;80;21038;-43
2022/07/12 09:03:00;;;;;;;2.92;1.10;;;;;;;20.00;50.66;99012.13;1778426;79;21081;-44
2022/07/12 09:05:32;;;;;;;1.10;0.68;;;;;;;20.03;51.38;99012.05;1787581;80;21002;-43
2022/07/12 09:08:08;;;;;;;1.20;0.90;;;;;;;20.08;51.27;99015.67;1787851;80;21213;-43
2022/07/12 09:10:37;;;;;;;1.98;0.72;;;;;;;20.12;49.66;99010.84;1787273;80;20974;-43
2022/07/12 09:13:05;;;;;;;1.50;0.60;;;;;;;20.14;50.08;99019.42;1778075;80;21022;-44
2022/07/12 09:15:32;;;;;;;1.30;1.00;;;;;;;20.08;50.45;99015.67;1776945;80;20920;-44
2022/07/12 09:18:12;;;;;;;2.17;1.00;;;;;;;20.04;51.26;99024.62;1777099;80;21027;-43
2022/07/12 09:20:38;;;;;;;1.47;0.93;;;;;;;19.97;51.05;99019.28;1775971;80;21216;-44
2022/07/12 09:23:11;;;;;;;2.27;1.10;;;;;;;19.94;51.41;99014.64;1776763;80;20959;-43
2022/07/12 09:25:39;;;;;;;1.45;0.90;;;;;;;19.95;52.10;99011.44;1776496;80;21544;-44
2022/07/12 09:28:08;;;;;;;3.52;1.37;;;;;;;19.99;51.83;99007.84;1776532;80;21050;-43
2022/07/12 09:30:39;;;;;;;1.22;0.90;;;;;;;20.03;52.40;99009.30;1778784;79;21039;-44
2022/07/12 09:36:06;;;;;;;4.78;1.30;;;;;;;20.23;53.19;99007.82;1804816;79;20890;-43
2022/07/12 09:38:38;;;;;;;1.12;1.00;;;;;;;20.30;53.58;98998.80;1804791;79;20949;-44
2022/07/12 09:41:07;;;;;;;2.22;1.00;;;;;;;20.36;52.35;98999.05;1804868;79;20930;-43
2022/07/12 09:43:35;;;;;;;1.90;0.95;;;;;;;20.40;53.37;98996.97;1804900;79;21064;-43
2022/07/12 09:46:02;;;;;;;3.52;1.10;;;;;;;20.52;52.97;99000.39;1804722;79;21232;-43
2022/07/12 09:48:29;;;;;;;1.82;1.00;;;;;;;20.64;50.33;98994.73;1804596;79;21481;-43
2022/07/12 09:50:58;;;;;;;1.35;0.90;;;;;;;20.75;50.90;98996.00;1805072;79;21476;-43
2022/07/12 09:53:33;;;;;;;1.57;0.75;;;;;;;20.87;51.69;98989.56;1805166;79;21012;-44
2022/07/12 09:56:05;;;;;;;1.50;1.00;;;;;;;20.97;49.87;98993.39;1804772;79;21017;-43
2022/07/12 09:58:40;;;;;;;3.05;1.15;;;;;;;20.98;50.98;98997.70;1804018;79;21422;-44
2022/07/12 10:01:08;;;;;;;2.42;1.00;;;;;;;20.94;49.61;98993.50;1803319;79;21794;-43
2022/07/12 10:03:35;;;;;;;1.07;0.85;;;;;;;20.85;50.77;98995.53;1804922;79;22125;-44
2022/07/12 10:06:03;;;;;;;3.30;0.82;;;;;;;20.78;50.94;98993.73;1804819;79;20882;-44
2022/07/12 10:08:31;;;;;;;1.25;0.80;;;;;;;20.80;51.37;98983.67;1804809;79;21080;-44
2022/07/12 10:10:58;;;;;;;1.92;0.90;;;;;;;20.96;51.61;98984.20;1804845;79;23163;-43
2022/07/12 10:13:25;;;;;;;2.33;0.80;;;;;;;21.07;48.83;98986.02;1798915;79;21018;-44
2022/07/12 10:15:52;;;;;;;0.78;0.65;;;;;;;21.10;50.65;98990.67;1797469;79;20981;-44
2022/07/12 10:18:20;;;;;;;2.25;0.90;;;;;;;21.09;49.02;98987.14;1797316;79;21645;-44
2022/07/12 10:20:48;;;;;;;1.90;0.80;;;;;;;21.06;48.88;98989.38;1797430;79;21500;-44
2022/07/12 10:23:36;;;;;;;1.25;0.90;;;;;;;21.05;49.71;98989.23;1797365;79;21760;-44
2022/07/12 10:26:26;;;;;;;3.55;1.02;;;;;;;21.05;49.55;98984.33;1797409;79;20973;-44
2022/07/12 10:29:09;;;;;;;1.30;0.90;;;;;;;21.02;49.77;98985.96;1795409;79;20946;-44
2022/07/12 10:31:39;;;;;;;1.95;0.80;;;;;;;20.99;50.69;98980.56;1797447;79;21089;-44
2022/07/12 10:34:23;;;;;;;1.95;1.12;;;;;;;20.96;50.68;98991.09;1797596;79;21077;-44
2022/07/12 10:37:02;;;;;;;5.33;1.70;;;;;;;20.88;50.12;98991.89;1797518;79;21134;-44
2022/07/12 10:39:29;;;;;;;3.53;1.90;;;;;;;20.63;53.37;99004.20;1797604;79;21010;-43
2022/07/12 10:42:16;;;;;;;4.45;1.40;;;;;;;20.19;56.10;99002.39;1797610;79;21444;-43
2022/07/12 10:44:49;;;;;;;1.95;1.30;;;;;;;19.78;57.29;98998.91;1797335;79;21495;-44
2022/07/12 10:47:17;;;;;;;5.28;1.52;;;;;;;19.49;58.65;98988.41;1797634;79;20981;-44
2022/07/12 10:49:52;;;;;;;1.87;1.17;;;;;;;19.35;59.23;98992.22;1797487;79;21208;-43
2022/07/12 10:52:26;;;;;;;3.87;1.50;;;;;;;19.27;59.74;98994.16;1797620;79;20911;-43
2022/07/12 10:55:02;;;;;;;1.50;1.30;;;;;;;19.24;60.50;98995.80;1797567;79;21438;-44
2022/07/12 10:57:43;;;;;;;4.20;1.32;;;;;;;19.27;59.88;98992.78;1791673;79;21061;-43
2022/07/12 11:00:11;;;;;;;2.30;1.47;;;;;;;19.30;59.64;98994.10;1797441;79;21076;-43
2022/07/12 11:02:39;;;;;;;2.95;1.42;;;;;;;19.38;60.25;99000.98;1797593;79;21182;-43
2022/07/12 11:05:08;;;;;;;3.27;1.35;;;;;;;19.43;61.49;98996.35;1797409;79;21016;-43
2022/07/12 11:07:36;;;;;;;2.58;1.35;;;;;;;19.55;60.22;98999.67;1797735;79;21476;-43
2022/07/12 11:10:05;;;;;;;1.60;1.02;;;;;;;19.57;60.59;98999.40;1797254;79;21008;-43
2022/07/12 11:12:32;;;;;;;2.12;1.30;;;;;;;19.55;60.81;98998.30;1802029;79;21035;-44
2022/07/12 11:15:00;;;;;;;2.52;1.10;;;;;;;19.51;60.81;98998.35;1814221;79;21601;-43
2022/07/12 11:17:30;;;;;;;2.02;1.02;;;;;;;19.49;61.30;99005.67;1814149;78;20890;-43
2022/07/12 11:20:10;;;;;;;3.17;0.80;;;;;;;19.50;61.30;99006.45;1813938;78;21570;-43
2022/07/12 11:22:42;;;;;;;1.55;1.02;;;;;;;19.45;59.61;99013.23;1814062;79;20978;-43
2022/07/12 11:25:11;;;;;;;4.35;0.78;;;;;;;19.29;60.14;99010.41;1813842;79;20996;-44
2022/07/12 11:27:38;;;;;;;3.67;1.15;;;;;;;19.02;57.59;99029.84;1814656;78;21076;-44
2022/07/12 11:30:08;;;;;;;5.42;1.50;;;;;;;18.63;60.17;99072.39;1814027;78;20882;-45
2022/07/12 11:32:41;;;;;;;5.70;1.40;;;;;;;17.97;60.18;99086.00;1814467;79;21020;-44
2022/07/12 11:35:21;;;;;;;4.67;0.98;;;;;;;17.03;57.40;99077.28;1813736;79;21033;-44
2022/07/12 11:37:57;;;;;;;2.85;0.70;;;;;;;16.27;60.60;99060.61;1814177;79;20960;-43
2022/07/12 11:40:30;;;;;;;4.90;0.60;;;;;;;15.68;62.13;99057.19;1813738;79;21206;-43
2022/07/12 11:42:59;;;;;;;2.37;0.80;;;;;;;15.34;63.27;99045.45;1813620;78;20948;-44
2022/07/12 11:45:31;;;;;;;2.35;0.70;;;;;;;15.20;65.01;99040.82;1813703;79;21023;-43
2022/07/12 11:48:02;;;;;;;1.32;0.62;;;;;;;15.11;66.05;99044.57;1814009;79;21004;-43
2022/07/12 11:50:30;;;;;;;2.47;0.75;;;;;;;15.03;66.85;99045.00;1813906;79;21025;-43